• Join FlightAware (Why Join?)
  • Login
  • US Flag 
12:13AM EST


 

Airport Tracker/Info


-or-


 

Live Flight TrackerFlight Track Log ✈ CXA8360 ✈ 24-Jul-2014 ✈ ZGNN / NNG - ZGSZ / SZX

Flight Track Log - Related Links

Times and Time Zones

All times are in EDT time to prevent confusion due to time zone crossing. See the CXA8360 flight status page for this flight to view local times or setup timezone preferences in your user account.

Time Position Orientation Groundspeed Altitude Reporting Facility
EDT Latitude Longitude Course Direction KTS MPH feet Rate Location/Type
11:14AM 22.6337 109.5254 89° East  Level Estimated
11:15AM 22.6353 109.6382 89° East  Level Estimated
11:16AM 22.6369 109.7510 89° East  Level Estimated
11:17AM 22.6383 109.8637 89° East  Level Estimated
11:18AM 22.6397 109.9765 89° East  Level Estimated
11:19AM 22.6410 110.0893 89° East  Level Estimated
11:20AM 22.6422 110.2021 89° East  Level Estimated
11:21AM 22.6434 110.3148 89° East  Level Estimated
11:22AM 22.6444 110.4276 89° East  Level Estimated
11:23AM 22.6454 110.5404 89° East  Level Estimated
11:24AM 22.6463 110.6532 89° East  Level Estimated
11:25AM 22.6471 110.7660 90° East  Level Estimated
11:26AM 22.6479 110.8788 90° East  Level Estimated
11:27AM 22.6485 110.9916 90° East  Level Estimated
11:28AM 22.6491 111.1044 90° East  Level Estimated
11:29AM 22.6496 111.2171 90° East  Level Estimated
11:30AM 22.6500 111.3299 90° East  Level Estimated
11:31AM 22.6504 111.4427 90° East  Level Estimated
11:32AM 22.6507 111.5555 90° East  Level Estimated
11:33AM 22.6509 111.6683 90° East  Level Estimated
11:34AM 22.6510 111.7811 90° East  Level Estimated
11:35AM 22.6510 111.8939 90° East  Level Estimated
11:36AM 22.6509 112.0067 90° East  Level Estimated
11:37AM 22.6508 112.1195 90° East  Level Estimated
11:38AM 22.6506 112.2323 90° East  Level Estimated
11:39AM 22.6503 112.3451 90° East  Level Estimated
11:40AM 22.6500 112.4579 90° East  Level Estimated
11:41AM 22.6495 112.5707 90° East  Level Estimated
11:42AM 22.6490 112.6835 90° East  Level Estimated
11:43AM 22.6484 112.7963 90° East  Level Estimated
11:44AM 22.6477 112.9091 90° East  Level Estimated
11:45AM 22.6470 113.0219 90° East  Level Estimated
11:46AM 22.6462 113.1346 90° East  Level Estimated
11:47AM 22.6452 113.2474 90° East  Level Estimated
11:48AM 22.6443 113.3602 91° East  Level Estimated
11:49AM 22.6432 113.4730 91° East  Level Estimated
11:50AM 22.6420 113.5858 91° East  Level Estimated
11:51AM 22.6408 113.6986 91° East  Level Estimated
11:52AM 22.6395 113.8113 91° East  Level Estimated
11:53AM 22.6395 113.8124 91° East  Level Estimated
11:54AM 22.6395 113.8124 North  Level Estimated
11:55AM 22.6395 113.8124 North  Level Estimated
11:56AM 22.6395 113.8124 North  Level Estimated
11:57AM 22.6395 113.8124 North  Level Estimated
11:58AM 22.6395 113.8124 North  Level Estimated
11:59AM 22.6395 113.8124 North  Level Estimated
12:00PM 22.6395 113.8124 North  Level Estimated
12:01PM 22.6395 113.8124 North  Level Estimated
12:02PM 22.6395 113.8124 North  Level Estimated
12:03PM 22.6395 113.8124 North  Level Estimated
12:04PM 22.6395 113.8124 North  Level Estimated
12:05PM 22.6395 113.8124 North  Level Estimated
12:06PM 22.6395 113.8124 North  Level Estimated
12:07PM 22.6395 113.8124 North  Level Estimated
12:08PM 22.6395 113.8124 North  Level Estimated